sensor_id;sensor_type;location;lat;lon;timestamp;P1;durP1;ratioP1;P2;durP2;ratioP2
59207;SDS011;44977;53.132;6.408;2024-01-30T00:02:30;22.67;;;20.35;;
59207;SDS011;44977;53.132;6.408;2024-01-30T00:07:32;23.63;;;21.13;;
59207;SDS011;44977;53.132;6.408;2024-01-30T00:12:32;22.92;;;20.13;;
59207;SDS011;44977;53.132;6.408;2024-01-30T00:17:33;23.65;;;21.15;;
59207;SDS011;44977;53.132;6.408;2024-01-30T00:22:34;22.92;;;20.27;;
59207;SDS011;44977;53.132;6.408;2024-01-30T00:27:34;23.30;;;20.73;;
59207;SDS011;44977;53.132;6.408;2024-01-30T00:32:35;23.70;;;21.17;;
59207;SDS011;44977;53.132;6.408;2024-01-30T00:37:36;22.90;;;20.52;;
59207;SDS011;44977;53.132;6.408;2024-01-30T00:42:37;24.17;;;21.63;;
59207;SDS011;44977;53.132;6.408;2024-01-30T00:47:38;26.70;;;23.65;;
59207;SDS011;44977;53.132;6.408;2024-01-30T00:52:38;25.30;;;22.73;;
59207;SDS011;44977;53.132;6.408;2024-01-30T00:57:41;26.55;;;23.63;;
59207;SDS011;44977;53.132;6.408;2024-01-30T01:02:42;25.90;;;22.10;;
59207;SDS011;44977;53.132;6.408;2024-01-30T01:07:43;26.38;;;23.67;;
59207;SDS011;44977;53.132;6.408;2024-01-30T01:12:44;24.80;;;22.30;;
59207;SDS011;44977;53.132;6.408;2024-01-30T01:17:45;26.75;;;24.02;;
59207;SDS011;44977;53.132;6.408;2024-01-30T01:22:46;28.00;;;25.08;;
59207;SDS011;44977;53.132;6.408;2024-01-30T01:27:46;25.85;;;23.05;;
59207;SDS011;44977;53.132;6.408;2024-01-30T01:32:51;28.05;;;25.17;;
59207;SDS011;44977;53.132;6.408;2024-01-30T01:37:56;26.13;;;23.52;;
59207;SDS011;44977;53.132;6.408;2024-01-30T01:43:02;28.15;;;25.25;;
59207;SDS011;44977;53.132;6.408;2024-01-30T01:48:03;26.55;;;23.85;;
59207;SDS011;44977;53.132;6.408;2024-01-30T01:53:05;27.85;;;24.95;;
59207;SDS011;44977;53.132;6.408;2024-01-30T01:58:08;27.48;;;24.60;;
59207;SDS011;44977;53.132;6.408;2024-01-30T02:03:10;27.55;;;24.67;;
59207;SDS011;44977;53.132;6.408;2024-01-30T02:08:12;27.83;;;24.60;;
59207;SDS011;44977;53.132;6.408;2024-01-30T02:13:12;26.58;;;23.75;;
59207;SDS011;44977;53.132;6.408;2024-01-30T02:18:13;27.27;;;24.45;;
59207;SDS011;44977;53.132;6.408;2024-01-30T02:23:15;29.42;;;26.27;;
59207;SDS011;44977;53.132;6.408;2024-01-30T02:28:16;27.63;;;24.73;;
59207;SDS011;44977;53.132;6.408;2024-01-30T02:33:17;28.30;;;25.30;;
59207;SDS011;44977;53.132;6.408;2024-01-30T02:38:17;27.98;;;25.02;;
59207;SDS011;44977;53.132;6.408;2024-01-30T02:43:18;28.40;;;25.33;;
59207;SDS011;44977;53.132;6.408;2024-01-30T02:48:19;29.20;;;25.63;;
59207;SDS011;44977;53.132;6.408;2024-01-30T02:53:20;28.42;;;24.77;;
59207;SDS011;44977;53.132;6.408;2024-01-30T02:58:20;26.70;;;23.98;;
59207;SDS011;44977;53.132;6.408;2024-01-30T03:03:21;28.00;;;25.17;;
59207;SDS011;44977;53.132;6.408;2024-01-30T03:08:21;26.38;;;23.50;;
59207;SDS011;44977;53.132;6.408;2024-01-30T03:13:23;26.90;;;23.90;;
59207;SDS011;44977;53.132;6.408;2024-01-30T03:18:25;26.30;;;23.45;;
59207;SDS011;44977;53.132;6.408;2024-01-30T03:23:25;29.95;;;24.52;;
59207;SDS011;44977;53.132;6.408;2024-01-30T03:28:26;26.48;;;23.58;;
59207;SDS011;44977;53.132;6.408;2024-01-30T03:33:26;27.63;;;24.60;;
59207;SDS011;44977;53.132;6.408;2024-01-30T03:38:28;25.65;;;23.05;;
59207;SDS011;44977;53.132;6.408;2024-01-30T03:43:29;26.48;;;23.67;;
59207;SDS011;44977;53.132;6.408;2024-01-30T03:48:29;26.83;;;24.17;;
59207;SDS011;44977;53.132;6.408;2024-01-30T03:53:30;24.55;;;21.75;;
59207;SDS011;44977;53.132;6.408;2024-01-30T03:58:31;26.10;;;23.30;;
59207;SDS011;44977;53.132;6.408;2024-01-30T04:03:32;24.90;;;22.40;;
59207;SDS011;44977;53.132;6.408;2024-01-30T04:08:32;25.13;;;21.80;;
59207;SDS011;44977;53.132;6.408;2024-01-30T04:13:33;24.20;;;21.00;;
59207;SDS011;44977;53.132;6.408;2024-01-30T04:18:34;24.15;;;21.52;;
59207;SDS011;44977;53.132;6.408;2024-01-30T04:23:35;25.08;;;22.38;;
59207;SDS011;44977;53.132;6.408;2024-01-30T04:28:36;23.98;;;21.50;;
59207;SDS011;44977;53.132;6.408;2024-01-30T04:33:36;24.13;;;20.85;;
59207;SDS011;44977;53.132;6.408;2024-01-30T04:38:40;22.27;;;19.98;;
59207;SDS011;44977;53.132;6.408;2024-01-30T04:43:40;23.45;;;20.63;;
59207;SDS011;44977;53.132;6.408;2024-01-30T04:48:41;24.92;;;20.77;;
59207;SDS011;44977;53.132;6.408;2024-01-30T04:53:42;22.83;;;20.42;;
59207;SDS011;44977;53.132;6.408;2024-01-30T04:58:42;22.67;;;20.05;;
59207;SDS011;44977;53.132;6.408;2024-01-30T05:03:43;22.80;;;19.95;;
59207;SDS011;44977;53.132;6.408;2024-01-30T05:08:44;22.25;;;19.95;;
59207;SDS011;44977;53.132;6.408;2024-01-30T05:13:45;22.15;;;19.75;;
59207;SDS011;44977;53.132;6.408;2024-01-30T05:18:45;22.30;;;19.90;;
59207;SDS011;44977;53.132;6.408;2024-01-30T05:23:46;22.33;;;19.85;;
59207;SDS011;44977;53.132;6.408;2024-01-30T05:28:47;21.48;;;19.17;;
59207;SDS011;44977;53.132;6.408;2024-01-30T05:33:48;21.67;;;19.38;;
59207;SDS011;44977;53.132;6.408;2024-01-30T05:38:49;22.25;;;19.95;;
59207;SDS011;44977;53.132;6.408;2024-01-30T05:43:50;21.98;;;19.58;;
59207;SDS011;44977;53.132;6.408;2024-01-30T05:48:50;21.73;;;18.85;;
59207;SDS011;44977;53.132;6.408;2024-01-30T05:53:51;20.63;;;18.42;;
59207;SDS011;44977;53.132;6.408;2024-01-30T05:58:52;21.80;;;18.30;;
59207;SDS011;44977;53.132;6.408;2024-01-30T06:03:52;21.17;;;17.90;;
59207;SDS011;44977;53.132;6.408;2024-01-30T06:08:53;23.10;;;18.55;;
59207;SDS011;44977;53.132;6.408;2024-01-30T06:13:56;20.80;;;17.83;;
59207;SDS011;44977;53.132;6.408;2024-01-30T06:18:56;19.63;;;16.77;;
59207;SDS011;44977;53.132;6.408;2024-01-30T06:23:57;19.95;;;16.15;;
59207;SDS011;44977;53.132;6.408;2024-01-30T06:28:58;19.10;;;16.88;;
59207;SDS011;44977;53.132;6.408;2024-01-30T06:33:58;19.98;;;16.67;;
59207;SDS011;44977;53.132;6.408;2024-01-30T06:38:59;20.15;;;16.33;;
59207;SDS011;44977;53.132;6.408;2024-01-30T06:44:03;19.27;;;16.02;;
59207;SDS011;44977;53.132;6.408;2024-01-30T06:49:06;18.50;;;16.05;;
59207;SDS011;44977;53.132;6.408;2024-01-30T06:54:07;20.13;;;16.88;;
59207;SDS011;44977;53.132;6.408;2024-01-30T06:59:07;18.40;;;15.55;;
59207;SDS011;44977;53.132;6.408;2024-01-30T07:04:08;19.75;;;16.40;;
59207;SDS011;44977;53.132;6.408;2024-01-30T07:09:09;18.42;;;16.25;;
59207;SDS011;44977;53.132;6.408;2024-01-30T07:14:10;18.90;;;15.80;;
59207;SDS011;44977;53.132;6.408;2024-01-30T07:19:10;19.05;;;16.40;;
59207;SDS011;44977;53.132;6.408;2024-01-30T07:24:11;17.92;;;16.00;;
59207;SDS011;44977;53.132;6.408;2024-01-30T07:29:12;18.17;;;16.00;;
59207;SDS011;44977;53.132;6.408;2024-01-30T07:34:13;18.70;;;16.77;;
59207;SDS011;44977;53.132;6.408;2024-01-30T07:39:13;18.35;;;15.73;;
59207;SDS011;44977;53.132;6.408;2024-01-30T07:44:14;22.75;;;16.48;;
59207;SDS011;44977;53.132;6.408;2024-01-30T07:49:16;21.83;;;17.58;;
59207;SDS011;44977;53.132;6.408;2024-01-30T07:54:16;19.17;;;15.88;;
59207;SDS011;44977;53.132;6.408;2024-01-30T07:59:17;18.98;;;16.38;;
59207;SDS011;44977;53.132;6.408;2024-01-30T08:04:19;19.17;;;17.08;;
59207;SDS011;44977;53.132;6.408;2024-01-30T08:09:20;19.23;;;16.15;;
59207;SDS011;44977;53.132;6.408;2024-01-30T08:14:20;20.70;;;16.48;;
59207;SDS011;44977;53.132;6.408;2024-01-30T08:19:21;18.50;;;15.93;;
59207;SDS011;44977;53.132;6.408;2024-01-30T08:24:22;17.77;;;15.50;;
59207;SDS011;44977;53.132;6.408;2024-01-30T08:29:22;19.00;;;15.57;;
59207;SDS011;44977;53.132;6.408;2024-01-30T08:34:23;19.70;;;16.00;;
59207;SDS011;44977;53.132;6.408;2024-01-30T08:39:24;17.13;;;14.88;;
59207;SDS011;44977;53.132;6.408;2024-01-30T08:44:25;17.90;;;15.40;;
59207;SDS011;44977;53.132;6.408;2024-01-30T08:49:25;18.33;;;14.93;;
59207;SDS011;44977;53.132;6.408;2024-01-30T08:54:26;18.35;;;14.75;;
59207;SDS011;44977;53.132;6.408;2024-01-30T08:59:27;16.83;;;14.18;;
59207;SDS011;44977;53.132;6.408;2024-01-30T09:04:27;18.20;;;14.45;;
59207;SDS011;44977;53.132;6.408;2024-01-30T09:09:29;16.85;;;13.85;;
59207;SDS011;44977;53.132;6.408;2024-01-30T09:14:30;17.48;;;14.05;;
59207;SDS011;44977;53.132;6.408;2024-01-30T09:19:31;17.83;;;14.43;;
59207;SDS011;44977;53.132;6.408;2024-01-30T09:24:31;26.20;;;14.70;;
59207;SDS011;44977;53.132;6.408;2024-01-30T09:29:32;18.23;;;13.95;;
59207;SDS011;44977;53.132;6.408;2024-01-30T09:34:34;17.58;;;14.15;;
59207;SDS011;44977;53.132;6.408;2024-01-30T09:39:35;19.55;;;13.73;;
59207;SDS011;44977;53.132;6.408;2024-01-30T09:44:35;18.17;;;14.07;;
59207;SDS011;44977;53.132;6.408;2024-01-30T09:49:38;20.83;;;14.32;;
59207;SDS011;44977;53.132;6.408;2024-01-30T09:54:42;18.50;;;14.15;;
59207;SDS011;44977;53.132;6.408;2024-01-30T09:59:44;19.65;;;14.25;;
59207;SDS011;44977;53.132;6.408;2024-01-30T10:04:48;19.13;;;14.68;;
59207;SDS011;44977;53.132;6.408;2024-01-30T10:09:50;18.75;;;14.25;;
59207;SDS011;44977;53.132;6.408;2024-01-30T10:14:51;19.65;;;14.57;;
59207;SDS011;44977;53.132;6.408;2024-01-30T10:19:52;17.20;;;13.20;;
59207;SDS011;44977;53.132;6.408;2024-01-30T10:24:53;18.35;;;13.77;;
59207;SDS011;44977;53.132;6.408;2024-01-30T10:29:54;17.65;;;13.90;;
59207;SDS011;44977;53.132;6.408;2024-01-30T10:34:54;19.88;;;13.35;;
59207;SDS011;44977;53.132;6.408;2024-01-30T10:39:55;20.42;;;14.85;;
59207;SDS011;44977;53.132;6.408;2024-01-30T10:45:13;19.08;;;14.45;;
59207;SDS011;44977;53.132;6.408;2024-01-30T10:50:15;18.00;;;14.55;;
59207;SDS011;44977;53.132;6.408;2024-01-30T10:55:16;21.33;;;15.57;;
59207;SDS011;44977;53.132;6.408;2024-01-30T11:00:18;19.42;;;14.10;;
59207;SDS011;44977;53.132;6.408;2024-01-30T11:05:24;19.33;;;15.25;;
59207;SDS011;44977;53.132;6.408;2024-01-30T11:10:27;20.70;;;14.82;;
59207;SDS011;44977;53.132;6.408;2024-01-30T11:15:29;19.67;;;12.90;;
59207;SDS011;44977;53.132;6.408;2024-01-30T11:20:31;18.65;;;13.02;;
59207;SDS011;44977;53.132;6.408;2024-01-30T11:25:33;19.45;;;11.07;;
59207;SDS011;44977;53.132;6.408;2024-01-30T11:30:34;18.15;;;9.48;;
59207;SDS011;44977;53.132;6.408;2024-01-30T11:35:35;14.93;;;8.23;;
59207;SDS011;44977;53.132;6.408;2024-01-30T11:40:39;14.02;;;6.88;;
59207;SDS011;44977;53.132;6.408;2024-01-30T11:45:40;9.52;;;4.35;;
59207;SDS011;44977;53.132;6.408;2024-01-30T11:50:41;11.20;;;3.83;;
59207;SDS011;44977;53.132;6.408;2024-01-30T11:55:42;7.80;;;3.15;;
59207;SDS011;44977;53.132;6.408;2024-01-30T12:00:54;6.75;;;2.50;;
59207;SDS011;44977;53.132;6.408;2024-01-30T12:05:58;6.57;;;1.80;;
59207;SDS011;44977;53.132;6.408;2024-01-30T12:10:59;5.82;;;1.50;;
59207;SDS011;44977;53.132;6.408;2024-01-30T12:16:02;4.90;;;1.40;;
59207;SDS011;44977;53.132;6.408;2024-01-30T12:21:02;5.15;;;1.60;;
59207;SDS011;44977;53.132;6.408;2024-01-30T12:26:03;4.82;;;1.23;;
59207;SDS011;44977;53.132;6.408;2024-01-30T12:31:07;4.85;;;1.20;;
59207;SDS011;44977;53.132;6.408;2024-01-30T12:36:09;5.47;;;1.40;;
59207;SDS011;44977;53.132;6.408;2024-01-30T12:41:11;5.75;;;1.30;;
59207;SDS011;44977;53.132;6.408;2024-01-30T12:46:12;4.13;;;1.20;;
59207;SDS011;44977;53.132;6.408;2024-01-30T12:51:13;4.18;;;1.30;;
59207;SDS011;44977;53.132;6.408;2024-01-30T12:56:13;4.65;;;1.40;;
59207;SDS011;44977;53.132;6.408;2024-01-30T13:01:15;4.88;;;1.30;;
59207;SDS011;44977;53.132;6.408;2024-01-30T13:06:15;5.40;;;1.40;;
59207;SDS011;44977;53.132;6.408;2024-01-30T13:11:16;4.30;;;1.35;;
59207;SDS011;44977;53.132;6.408;2024-01-30T13:16:17;4.97;;;1.23;;
59207;SDS011;44977;53.132;6.408;2024-01-30T13:21:18;5.28;;;1.30;;
59207;SDS011;44977;53.132;6.408;2024-01-30T13:26:18;3.97;;;1.17;;
59207;SDS011;44977;53.132;6.408;2024-01-30T13:31:20;5.20;;;1.63;;
59207;SDS011;44977;53.132;6.408;2024-01-30T13:36:21;4.18;;;1.20;;
59207;SDS011;44977;53.132;6.408;2024-01-30T13:41:22;4.43;;;1.20;;
59207;SDS011;44977;53.132;6.408;2024-01-30T13:46:23;5.40;;;1.25;;
59207;SDS011;44977;53.132;6.408;2024-01-30T13:51:23;4.28;;;1.20;;
59207;SDS011;44977;53.132;6.408;2024-01-30T13:56:24;5.25;;;1.23;;
59207;SDS011;44977;53.132;6.408;2024-01-30T14:01:26;4.15;;;1.23;;
59207;SDS011;44977;53.132;6.408;2024-01-30T14:06:27;4.55;;;1.27;;
59207;SDS011;44977;53.132;6.408;2024-01-30T14:11:28;4.28;;;1.33;;
59207;SDS011;44977;53.132;6.408;2024-01-30T14:16:28;7.05;;;2.20;;
59207;SDS011;44977;53.132;6.408;2024-01-30T14:21:29;4.90;;;1.90;;
59207;SDS011;44977;53.132;6.408;2024-01-30T14:26:30;5.50;;;2.33;;
59207;SDS011;44977;53.132;6.408;2024-01-30T14:31:30;6.93;;;2.67;;
59207;SDS011;44977;53.132;6.408;2024-01-30T14:36:31;9.63;;;3.28;;
59207;SDS011;44977;53.132;6.408;2024-01-30T14:41:32;6.70;;;3.30;;
59207;SDS011;44977;53.132;6.408;2024-01-30T14:46:33;7.55;;;3.45;;
59207;SDS011;44977;53.132;6.408;2024-01-30T14:51:34;9.18;;;3.50;;
59207;SDS011;44977;53.132;6.408;2024-01-30T14:56:35;6.43;;;3.30;;
59207;SDS011;44977;53.132;6.408;2024-01-30T15:01:36;6.60;;;3.65;;
59207;SDS011;44977;53.132;6.408;2024-01-30T15:06:37;7.45;;;3.50;;
59207;SDS011;44977;53.132;6.408;2024-01-30T15:11:38;6.35;;;3.10;;
59207;SDS011;44977;53.132;6.408;2024-01-30T15:16:38;8.40;;;3.83;;
59207;SDS011;44977;53.132;6.408;2024-01-30T15:21:39;6.70;;;3.80;;
59207;SDS011;44977;53.132;6.408;2024-01-30T15:26:40;6.72;;;3.92;;
59207;SDS011;44977;53.132;6.408;2024-01-30T15:31:41;10.32;;;4.78;;
59207;SDS011;44977;53.132;6.408;2024-01-30T15:36:42;8.93;;;5.15;;
59207;SDS011;44977;53.132;6.408;2024-01-30T15:41:42;10.00;;;5.25;;
59207;SDS011;44977;53.132;6.408;2024-01-30T15:46:43;7.68;;;5.00;;
59207;SDS011;44977;53.132;6.408;2024-01-30T15:51:44;7.95;;;4.95;;
59207;SDS011;44977;53.132;6.408;2024-01-30T15:56:44;8.93;;;4.85;;
59207;SDS011;44977;53.132;6.408;2024-01-30T16:01:45;7.47;;;5.07;;
59207;SDS011;44977;53.132;6.408;2024-01-30T16:06:48;10.13;;;6.00;;
59207;SDS011;44977;53.132;6.408;2024-01-30T16:11:49;8.38;;;5.40;;
59207;SDS011;44977;53.132;6.408;2024-01-30T16:16:50;8.90;;;5.60;;
59207;SDS011;44977;53.132;6.408;2024-01-30T16:21:51;8.40;;;5.00;;
59207;SDS011;44977;53.132;6.408;2024-01-30T16:26:51;10.35;;;6.30;;
59207;SDS011;44977;53.132;6.408;2024-01-30T16:31:52;11.20;;;6.32;;
59207;SDS011;44977;53.132;6.408;2024-01-30T16:36:53;11.82;;;5.75;;
59207;SDS011;44977;53.132;6.408;2024-01-30T16:41:53;11.90;;;5.40;;
59207;SDS011;44977;53.132;6.408;2024-01-30T16:46:54;11.20;;;4.53;;
59207;SDS011;44977;53.132;6.408;2024-01-30T16:51:55;10.48;;;3.95;;
59207;SDS011;44977;53.132;6.408;2024-01-30T16:56:56;12.07;;;3.95;;
59207;SDS011;44977;53.132;6.408;2024-01-30T17:01:56;9.30;;;3.22;;
59207;SDS011;44977;53.132;6.408;2024-01-30T17:06:57;8.98;;;3.22;;
59207;SDS011;44977;53.132;6.408;2024-01-30T17:11:59;10.07;;;3.88;;
59207;SDS011;44977;53.132;6.408;2024-01-30T17:17:03;15.75;;;4.15;;
59207;SDS011;44977;53.132;6.408;2024-01-30T17:22:04;12.63;;;4.30;;
59207;SDS011;44977;53.132;6.408;2024-01-30T17:27:06;14.32;;;4.30;;
59207;SDS011;44977;53.132;6.408;2024-01-30T17:32:07;17.02;;;4.93;;
59207;SDS011;44977;53.132;6.408;2024-01-30T17:37:07;16.65;;;5.53;;
59207;SDS011;44977;53.132;6.408;2024-01-30T17:42:11;20.80;;;6.63;;
59207;SDS011;44977;53.132;6.408;2024-01-30T17:47:11;18.85;;;5.75;;
59207;SDS011;44977;53.132;6.408;2024-01-30T17:52:12;18.92;;;5.75;;
59207;SDS011;44977;53.132;6.408;2024-01-30T17:57:13;17.50;;;4.97;;
59207;SDS011;44977;53.132;6.408;2024-01-30T18:02:13;16.70;;;4.63;;
59207;SDS011;44977;53.132;6.408;2024-01-30T18:07:15;16.25;;;4.38;;
59207;SDS011;44977;53.132;6.408;2024-01-30T18:12:15;18.00;;;4.93;;
59207;SDS011;44977;53.132;6.408;2024-01-30T18:17:16;21.27;;;5.15;;
59207;SDS011;44977;53.132;6.408;2024-01-30T18:22:17;16.30;;;4.22;;
59207;SDS011;44977;53.132;6.408;2024-01-30T18:27:18;13.00;;;3.95;;
59207;SDS011;44977;53.132;6.408;2024-01-30T18:32:18;14.77;;;3.92;;
59207;SDS011;44977;53.132;6.408;2024-01-30T18:37:19;15.57;;;3.55;;
59207;SDS011;44977;53.132;6.408;2024-01-30T18:42:20;12.63;;;3.13;;
59207;SDS011;44977;53.132;6.408;2024-01-30T18:47:20;15.88;;;3.35;;
59207;SDS011;44977;53.132;6.408;2024-01-30T18:52:21;13.45;;;3.95;;
59207;SDS011;44977;53.132;6.408;2024-01-30T18:57:22;14.07;;;3.92;;
59207;SDS011;44977;53.132;6.408;2024-01-30T19:02:22;16.00;;;3.78;;
59207;SDS011;44977;53.132;6.408;2024-01-30T19:07:23;19.25;;;3.58;;
59207;SDS011;44977;53.132;6.408;2024-01-30T19:12:24;16.98;;;4.00;;
59207;SDS011;44977;53.132;6.408;2024-01-30T19:17:27;16.75;;;4.18;;
59207;SDS011;44977;53.132;6.408;2024-01-30T19:22:28;18.85;;;4.45;;
59207;SDS011;44977;53.132;6.408;2024-01-30T19:27:29;20.35;;;4.30;;
59207;SDS011;44977;53.132;6.408;2024-01-30T19:32:30;18.25;;;3.80;;
59207;SDS011;44977;53.132;6.408;2024-01-30T19:37:31;14.80;;;3.25;;
59207;SDS011;44977;53.132;6.408;2024-01-30T19:42:37;16.65;;;3.40;;
59207;SDS011;44977;53.132;6.408;2024-01-30T19:47:38;19.10;;;3.95;;
59207;SDS011;44977;53.132;6.408;2024-01-30T19:52:40;17.35;;;3.78;;
59207;SDS011;44977;53.132;6.408;2024-01-30T19:57:43;20.48;;;3.83;;
59207;SDS011;44977;53.132;6.408;2024-01-30T20:02:44;16.33;;;3.67;;
59207;SDS011;44977;53.132;6.408;2024-01-30T20:07:44;17.70;;;3.28;;
59207;SDS011;44977;53.132;6.408;2024-01-30T20:12:45;13.57;;;2.55;;
59207;SDS011;44977;53.132;6.408;2024-01-30T20:17:47;12.35;;;2.58;;
59207;SDS011;44977;53.132;6.408;2024-01-30T20:22:50;14.25;;;2.65;;
59207;SDS011;44977;53.132;6.408;2024-01-30T20:27:51;9.70;;;2.50;;
59207;SDS011;44977;53.132;6.408;2024-01-30T20:32:53;10.25;;;2.30;;
59207;SDS011;44977;53.132;6.408;2024-01-30T20:37:54;11.85;;;2.17;;
59207;SDS011;44977;53.132;6.408;2024-01-30T20:42:55;10.10;;;1.85;;
59207;SDS011;44977;53.132;6.408;2024-01-30T20:47:56;9.73;;;1.80;;
59207;SDS011;44977;53.132;6.408;2024-01-30T20:52:56;8.32;;;1.75;;
59207;SDS011;44977;53.132;6.408;2024-01-30T20:57:57;8.13;;;1.80;;
59207;SDS011;44977;53.132;6.408;2024-01-30T21:02:58;7.93;;;1.55;;
59207;SDS011;44977;53.132;6.408;2024-01-30T21:07:59;9.10;;;1.70;;
59207;SDS011;44977;53.132;6.408;2024-01-30T21:12:59;8.65;;;1.88;;
59207;SDS011;44977;53.132;6.408;2024-01-30T21:18:00;6.95;;;1.80;;
59207;SDS011;44977;53.132;6.408;2024-01-30T21:23:03;7.43;;;1.80;;
59207;SDS011;44977;53.132;6.408;2024-01-30T21:28:04;11.50;;;2.10;;
59207;SDS011;44977;53.132;6.408;2024-01-30T21:33:05;12.55;;;2.60;;
59207;SDS011;44977;53.132;6.408;2024-01-30T21:38:05;8.60;;;2.20;;
59207;SDS011;44977;53.132;6.408;2024-01-30T21:43:06;10.95;;;2.22;;
59207;SDS011;44977;53.132;6.408;2024-01-30T21:48:07;14.07;;;3.75;;
59207;SDS011;44977;53.132;6.408;2024-01-30T21:53:08;9.65;;;2.47;;
59207;SDS011;44977;53.132;6.408;2024-01-30T21:58:08;10.98;;;3.20;;
59207;SDS011;44977;53.132;6.408;2024-01-30T22:03:09;8.95;;;2.33;;
59207;SDS011;44977;53.132;6.408;2024-01-30T22:08:10;12.80;;;2.67;;
59207;SDS011;44977;53.132;6.408;2024-01-30T22:13:10;8.73;;;1.92;;
59207;SDS011;44977;53.132;6.408;2024-01-30T22:18:11;12.07;;;2.22;;
59207;SDS011;44977;53.132;6.408;2024-01-30T22:23:12;10.57;;;1.90;;
59207;SDS011;44977;53.132;6.408;2024-01-30T22:28:13;7.93;;;2.00;;
59207;SDS011;44977;53.132;6.408;2024-01-30T22:33:14;10.98;;;2.13;;
59207;SDS011;44977;53.132;6.408;2024-01-30T22:38:14;7.47;;;1.85;;
59207;SDS011;44977;53.132;6.408;2024-01-30T22:43:15;10.95;;;1.70;;
59207;SDS011;44977;53.132;6.408;2024-01-30T22:48:16;10.07;;;1.88;;
59207;SDS011;44977;53.132;6.408;2024-01-30T22:53:17;10.60;;;2.22;;
59207;SDS011;44977;53.132;6.408;2024-01-30T22:58:17;12.23;;;2.13;;
59207;SDS011;44977;53.132;6.408;2024-01-30T23:03:18;12.43;;;2.22;;
59207;SDS011;44977;53.132;6.408;2024-01-30T23:08:19;10.00;;;2.10;;
59207;SDS011;44977;53.132;6.408;2024-01-30T23:13:20;9.20;;;1.75;;
59207;SDS011;44977;53.132;6.408;2024-01-30T23:18:21;10.10;;;2.20;;
59207;SDS011;44977;53.132;6.408;2024-01-30T23:23:21;10.82;;;2.00;;
59207;SDS011;44977;53.132;6.408;2024-01-30T23:28:22;10.63;;;2.17;;
59207;SDS011;44977;53.132;6.408;2024-01-30T23:33:23;11.05;;;2.33;;
59207;SDS011;44977;53.132;6.408;2024-01-30T23:38:23;10.45;;;2.10;;
59207;SDS011;44977;53.132;6.408;2024-01-30T23:43:24;11.98;;;2.35;;
59207;SDS011;44977;53.132;6.408;2024-01-30T23:48:25;13.95;;;2.28;;
59207;SDS011;44977;53.132;6.408;2024-01-30T23:53:25;9.80;;;2.20;;
59207;SDS011;44977;53.132;6.408;2024-01-30T23:58:26;9.50;;;1.83;;
